Hinton, WV (25951)

3:29 PM EDT on July 06, 2015 (GMT -0400)
Bluestone Dam - Meador Station | | Change Station
CLOSE
Current Station
Personal Weather Station
Location: Hinton, WV
Elevation: 1394 ft
Nearby Weather Stations

Elev 1394 ft 37.65 °N, 80.88 °W | Updated 30 seconds ago

Overcast
Overcast
79.3 °F
Feels Like 81 °F
N
0.0
Wind Variable Wind from East
Gusts 0.0 mph

Today
High -- | Low -- °F
--% Chance of Precip.
Yesterday
High -- | Low -- °F
Precip. -- in
6:08 AM 8:48 PM
Waning Gibbous, 73% visible
Pressure 30.17 in
Visibility 10.0 miles
Clouds Few 1400 ft
Mostly Cloudy 2100 ft
Overcast 2800 ft
Heat Index 81 °F
Dew Point 66 °F
Humidity 64%
Rainfall 0.13 in
Snow Depth Not available.
UV 4.0 out of 12
Pollen .50 out of 12
Air Quality Not available.
Flu Activity Not available.
SPECI KBKW 061902Z AUTO 27008KT 10SM FEW014 BKN021 OVC028 22/17 A3017 RMK AO2 T02170172

More Conditions Fewer Conditions

Pressure 30.17 in
Visibility 10.0 miles
Clouds Few 1400 ft
Mostly Cloudy 2100 ft
Overcast 2800 ft
Heat Index 81 °F
Dew Point 66 °F
Humidity 64%
Rainfall 0.13 in
Snow Depth Not available.
UV 4.0 out of 12
Pollen .50 out of 12
Air Quality Not available.
Flu Activity Not available.
SPECI KBKW 061902Z AUTO 27008KT 10SM FEW014 BKN021 OVC028 22/17 A3017 RMK AO2 T02170172

More Conditions Fewer Conditions

10-Day Weather Forecast

×

Almanac

Astronomy

Jul. 06, 2015 Rise Set
Actual Time
Civil Twilight
Nautical Twilight
Astronomical Twilight
Moon
Length of Visible Light
Length of Day
Tomorrow will be .
, % of the Moon is Illuminated

Today's Extremes

State Highs State Lows

Community

WunderPhotos

Upload Photos

1,835,621 photos uploaded!

WunderBlogs® & News

Nearby

Air Quality

  Air Quality AQ Index Pollutant
Not available.

Snow Depth

Station Depth Elevation

Earthquake Activity

City Distance Mag. Time & Date
Minimum magnitude displayed is 2.5.

Coastal Water Temperatures

Place Temperature

Stations

Nearby Weather Stations

Station Location Temp. Windchill Dew Point Humidity Wind Precip. Elev Updated Type